KDBQ/DBQ METAR and TAF weather

Enter ICAO airport designator
Station Type Date Time Source
KDBQ METAR 2018/12/13 14:53 UTC NOAA

KDBQ 131453Z 10006KT 4SM BR BKN040 M02/M04 A3001 RMK AO2 SLP176 T10221039 51010


Station Type Date Time Source
KDBQ Decoded METAR 2018/12/13 14:53 UTC NOAA

DUBUQUE REGIONAL AIRPORT, IA, United States (KDBQ) 42-24N 90-42W 326M
Dec 13, 2018 - 09:53 AM EST / 2018.12.13 1453 UTC
Wind: from the E (100 degrees) at 7 MPH (6 KT):0
Visibility: 4 mile(s):0
Sky conditions: mostly cloudy
Weather: mist
Temperature: 28.0 F (-2.2 C)
Windchill: 21 F (-6 C):1
Dew Point: 25.0 F (-3.9 C)
Relative Humidity: 88%
Pressure (altimeter): 30.01 in. Hg (1016 hPa)
Pressure tendency: 0.03 inches (1.0 hPa) higher than three hours ago
ob: KDBQ 131453Z 10006KT 4SM BR BKN040 M02/M04 A3001 RMK AO2 SLP176 T10221039 51010
cycle: 15

Station Type Date Time Source
KDBQ TAF 2018/12/13 12:42 UTC NOAA

TAF KDBQ 131139Z 1312/1412 06007KT 3SM BR SKC
FM131400 09005KT 5SM BR BKN120
FM132100 02009KT 5SM BR OVC020 PROB30 1401/1404 4SM -RA OVC010
FM140600 35009KT P6SM BKN020


Example: see airport list